Wright, KS (67882)

12:36 PM CDT on March 27, 2015 (GMT -0500)
Summerlon | | Change Station
CLOSE
Current Station
Personal Weather Station
Location: Dodge City, KS
Elevation: 2586 ft
Nearby Weather Stations

Elev 2586 ft 37.78 °N, 100.00 °W | Updated 21 seconds ago

Overcast
Overcast
44.4 °F
Feels Like 44 °F
N
3.0
Wind Variable Wind from West
Gusts 3.0 mph

Today
High -- | Low -- °F
--% Chance of Precip.
Yesterday
High -- | Low -- °F
Precip. -- in
7:32 AM 7:57 PM
First Quarter, 54% visible
Pressure 30.25 in
Visibility 10.0 miles
Clouds Scattered Clouds 1500 ft
Mostly Cloudy 6000 ft
Windchill 44 °F
Dew Point 35 °F
Humidity 69%
Rainfall 0.00 in
Snow Depth Not available.
UV 4 out of 12
Pollen 8.90 out of 12
Air Quality Not available.
Flu Activity Not available.
SPECI KDDC 271714Z AUTO VRB04KT 10SM SCT015 BKN060 05/M01 A3025 RMK AO2 T00501011

More Conditions Fewer Conditions

Pressure 30.25 in
Visibility 10.0 miles
Clouds Scattered Clouds 1500 ft
Mostly Cloudy 6000 ft
Windchill 44 °F
Dew Point 35 °F
Humidity 69%
Rainfall 0.00 in
Snow Depth Not available.
UV 4 out of 12
Pollen 8.90 out of 12
Air Quality Not available.
Flu Activity Not available.
SPECI KDDC 271714Z AUTO VRB04KT 10SM SCT015 BKN060 05/M01 A3025 RMK AO2 T00501011

More Conditions Fewer Conditions

10-Day Weather Forecast

Almanac

Astronomy

Mar. 27, 2015 Rise Set
Actual Time
Civil Twilight
Nautical Twilight
Astronomical Twilight
Moon
Length of Visible Light
Length of Day
Tomorrow will be .
, % of the Moon is Illuminated

Today's Extremes

State Highs State Lows

Community

WunderPhotos

Upload Photos

1,808,770 photos uploaded!

WunderBlogs® & News

Nearby

Air Quality

  Air Quality AQ Index Pollutant
Not available.

Snow Depth

Station Depth Elevation

Earthquake Activity

City Distance Mag. Time & Date
Minimum magnitude displayed is 2.5.

Coastal Water Temperatures

Place Temperature

Stations

Nearby Weather Stations

Station Location Temp. Windchill Dew Point Humidity Wind Precip. Elev Updated Type